sensor_id;sensor_type;location;lat;lon;timestamp;temperature;humidity
21445;DHT22;10883;51.946;20.140;2023-06-14T00:00:31;12.80;99.90
21445;DHT22;10883;51.946;20.140;2023-06-14T00:02:57;12.70;99.90
21445;DHT22;10883;51.946;20.140;2023-06-14T00:05:23;12.70;99.90
21445;DHT22;10883;51.946;20.140;2023-06-14T00:07:49;12.70;99.90
21445;DHT22;10883;51.946;20.140;2023-06-14T00:10:19;12.70;99.90
21445;DHT22;10883;51.946;20.140;2023-06-14T00:12:45;12.70;99.90
21445;DHT22;10883;51.946;20.140;2023-06-14T00:15:10;12.70;99.90
21445;DHT22;10883;51.946;20.140;2023-06-14T00:17:36;12.70;99.90
21445;DHT22;10883;51.946;20.140;2023-06-14T00:20:04;12.80;99.90
21445;DHT22;10883;51.946;20.140;2023-06-14T00:22:33;12.80;99.90
21445;DHT22;10883;51.946;20.140;2023-06-14T00:25:02;12.80;99.90
21445;DHT22;10883;51.946;20.140;2023-06-14T00:27:27;12.80;99.90
21445;DHT22;10883;51.946;20.140;2023-06-14T00:29:53;12.90;99.90
21445;DHT22;10883;51.946;20.140;2023-06-14T00:32:19;12.80;99.90
21445;DHT22;10883;51.946;20.140;2023-06-14T00:34:45;12.80;99.90
21445;DHT22;10883;51.946;20.140;2023-06-14T00:37:11;12.80;99.90
21445;DHT22;10883;51.946;20.140;2023-06-14T00:39:36;12.70;99.90
21445;DHT22;10883;51.946;20.140;2023-06-14T00:42:02;12.70;99.90
21445;DHT22;10883;51.946;20.140;2023-06-14T00:44:28;12.70;99.90
21445;DHT22;10883;51.946;20.140;2023-06-14T00:46:54;12.70;99.90
21445;DHT22;10883;51.946;20.140;2023-06-14T00:49:20;12.70;99.90
21445;DHT22;10883;51.946;20.140;2023-06-14T00:51:46;12.70;99.90
21445;DHT22;10883;51.946;20.140;2023-06-14T00:54:12;12.70;99.90
21445;DHT22;10883;51.946;20.140;2023-06-14T00:56:38;12.70;99.90
21445;DHT22;10883;51.946;20.140;2023-06-14T00:59:04;12.70;99.90
21445;DHT22;10883;51.946;20.140;2023-06-14T01:01:31;12.70;99.90
21445;DHT22;10883;51.946;20.140;2023-06-14T01:04:00;12.70;99.90
21445;DHT22;10883;51.946;20.140;2023-06-14T01:06:52;12.80;99.90
21445;DHT22;10883;51.946;20.140;2023-06-14T01:09:55;12.80;99.90
21445;DHT22;10883;51.946;20.140;2023-06-14T01:12:49;12.70;99.90
21445;DHT22;10883;51.946;20.140;2023-06-14T01:15:17;12.90;99.90
21445;DHT22;10883;51.946;20.140;2023-06-14T01:17:44;12.80;99.90
21445;DHT22;10883;51.946;20.140;2023-06-14T01:20:12;12.90;99.90
21445;DHT22;10883;51.946;20.140;2023-06-14T01:22:55;12.80;99.90
21445;DHT22;10883;51.946;20.140;2023-06-14T01:25:21;12.80;99.90
21445;DHT22;10883;51.946;20.140;2023-06-14T01:28:03;12.80;99.90
21445;DHT22;10883;51.946;20.140;2023-06-14T01:30:30;12.80;99.90
21445;DHT22;10883;51.946;20.140;2023-06-14T01:32:58;12.70;99.90
21445;DHT22;10883;51.946;20.140;2023-06-14T01:35:24;12.70;99.90
21445;DHT22;10883;51.946;20.140;2023-06-14T01:37:51;12.70;99.90
21445;DHT22;10883;51.946;20.140;2023-06-14T01:40:18;12.70;99.90
21445;DHT22;10883;51.946;20.140;2023-06-14T01:42:46;12.70;99.90
21445;DHT22;10883;51.946;20.140;2023-06-14T01:45:14;12.70;99.90
21445;DHT22;10883;51.946;20.140;2023-06-14T01:47:40;12.70;99.90
21445;DHT22;10883;51.946;20.140;2023-06-14T01:50:06;12.70;99.90
21445;DHT22;10883;51.946;20.140;2023-06-14T01:52:32;12.70;99.90
21445;DHT22;10883;51.946;20.140;2023-06-14T01:54:58;12.70;99.90
21445;DHT22;10883;51.946;20.140;2023-06-14T01:57:25;12.70;99.90
21445;DHT22;10883;51.946;20.140;2023-06-14T01:59:52;12.80;99.90
21445;DHT22;10883;51.946;20.140;2023-06-14T02:02:18;12.70;99.90
21445;DHT22;10883;51.946;20.140;2023-06-14T02:04:44;12.70;99.90
21445;DHT22;10883;51.946;20.140;2023-06-14T02:07:13;12.70;99.90
21445;DHT22;10883;51.946;20.140;2023-06-14T02:09:40;12.70;99.90
21445;DHT22;10883;51.946;20.140;2023-06-14T02:12:06;12.70;99.90
21445;DHT22;10883;51.946;20.140;2023-06-14T02:14:32;12.70;99.90
21445;DHT22;10883;51.946;20.140;2023-06-14T02:16:58;12.70;99.90
21445;DHT22;10883;51.946;20.140;2023-06-14T02:19:24;12.70;99.90
21445;DHT22;10883;51.946;20.140;2023-06-14T02:21:50;12.70;99.90
21445;DHT22;10883;51.946;20.140;2023-06-14T02:24:16;12.80;99.90
21445;DHT22;10883;51.946;20.140;2023-06-14T02:26:42;12.80;99.90
21445;DHT22;10883;51.946;20.140;2023-06-14T02:29:08;12.70;99.90
21445;DHT22;10883;51.946;20.140;2023-06-14T02:31:38;12.70;99.90
21445;DHT22;10883;51.946;20.140;2023-06-14T02:34:04;12.70;99.90
21445;DHT22;10883;51.946;20.140;2023-06-14T02:36:30;12.70;99.90
21445;DHT22;10883;51.946;20.140;2023-06-14T02:38:56;12.70;99.90
21445;DHT22;10883;51.946;20.140;2023-06-14T02:41:25;12.70;99.90
21445;DHT22;10883;51.946;20.140;2023-06-14T02:43:52;12.70;99.90
21445;DHT22;10883;51.946;20.140;2023-06-14T02:46:18;12.80;99.90
21445;DHT22;10883;51.946;20.140;2023-06-14T02:48:43;12.80;99.90
21445;DHT22;10883;51.946;20.140;2023-06-14T02:51:09;12.80;99.90
21445;DHT22;10883;51.946;20.140;2023-06-14T02:53:36;12.80;99.90
21445;DHT22;10883;51.946;20.140;2023-06-14T02:56:04;12.90;99.90
21445;DHT22;10883;51.946;20.140;2023-06-14T02:58:30;12.90;99.90
21445;DHT22;10883;51.946;20.140;2023-06-14T03:00:56;13.00;99.90
21445;DHT22;10883;51.946;20.140;2023-06-14T03:03:22;13.00;99.90
21445;DHT22;10883;51.946;20.140;2023-06-14T03:05:50;13.00;99.90
21445;DHT22;10883;51.946;20.140;2023-06-14T03:08:17;13.00;99.90
21445;DHT22;10883;51.946;20.140;2023-06-14T03:10:48;13.00;99.90
21445;DHT22;10883;51.946;20.140;2023-06-14T03:13:15;13.00;99.90
21445;DHT22;10883;51.946;20.140;2023-06-14T03:15:46;13.10;99.90
21445;DHT22;10883;51.946;20.140;2023-06-14T03:18:13;13.10;99.90
21445;DHT22;10883;51.946;20.140;2023-06-14T03:20:40;13.10;99.90
21445;DHT22;10883;51.946;20.140;2023-06-14T03:23:08;13.10;99.90
21445;DHT22;10883;51.946;20.140;2023-06-14T03:25:34;13.10;99.90
21445;DHT22;10883;51.946;20.140;2023-06-14T03:28:04;13.20;99.90
21445;DHT22;10883;51.946;20.140;2023-06-14T03:30:31;13.20;99.90
21445;DHT22;10883;51.946;20.140;2023-06-14T03:32:57;13.20;99.90
21445;DHT22;10883;51.946;20.140;2023-06-14T03:35:26;13.30;99.90
21445;DHT22;10883;51.946;20.140;2023-06-14T03:37:52;13.30;99.90
21445;DHT22;10883;51.946;20.140;2023-06-14T03:40:19;13.30;99.90
21445;DHT22;10883;51.946;20.140;2023-06-14T03:42:47;13.30;99.90
21445;DHT22;10883;51.946;20.140;2023-06-14T03:45:13;13.30;99.90
21445;DHT22;10883;51.946;20.140;2023-06-14T03:47:39;13.30;99.90
21445;DHT22;10883;51.946;20.140;2023-06-14T03:50:05;13.30;99.90
21445;DHT22;10883;51.946;20.140;2023-06-14T03:52:31;13.30;99.90
21445;DHT22;10883;51.946;20.140;2023-06-14T03:54:58;13.30;99.90
21445;DHT22;10883;51.946;20.140;2023-06-14T03:57:25;13.40;99.90
21445;DHT22;10883;51.946;20.140;2023-06-14T03:59:51;13.40;99.90
21445;DHT22;10883;51.946;20.140;2023-06-14T04:02:18;13.50;99.90
21445;DHT22;10883;51.946;20.140;2023-06-14T04:04:44;13.50;99.90
21445;DHT22;10883;51.946;20.140;2023-06-14T04:07:13;13.60;99.90
21445;DHT22;10883;51.946;20.140;2023-06-14T04:09:40;13.60;99.90
21445;DHT22;10883;51.946;20.140;2023-06-14T04:12:06;13.80;99.90
21445;DHT22;10883;51.946;20.140;2023-06-14T04:14:34;13.90;99.90
21445;DHT22;10883;51.946;20.140;2023-06-14T04:17:00;14.00;99.90
21445;DHT22;10883;51.946;20.140;2023-06-14T04:19:26;14.20;99.90
21445;DHT22;10883;51.946;20.140;2023-06-14T04:21:52;14.40;99.90
21445;DHT22;10883;51.946;20.140;2023-06-14T04:24:18;14.70;99.90
21445;DHT22;10883;51.946;20.140;2023-06-14T04:26:45;15.00;99.90
21445;DHT22;10883;51.946;20.140;2023-06-14T04:29:11;15.10;99.90
21445;DHT22;10883;51.946;20.140;2023-06-14T04:31:40;15.30;99.90
21445;DHT22;10883;51.946;20.140;2023-06-14T04:34:06;15.50;99.90
21445;DHT22;10883;51.946;20.140;2023-06-14T04:36:33;15.60;99.90
21445;DHT22;10883;51.946;20.140;2023-06-14T04:39:03;15.80;99.90
21445;DHT22;10883;51.946;20.140;2023-06-14T04:41:30;15.90;99.90
21445;DHT22;10883;51.946;20.140;2023-06-14T04:44:00;16.00;99.90
21445;DHT22;10883;51.946;20.140;2023-06-14T04:46:30;16.00;99.90
21445;DHT22;10883;51.946;20.140;2023-06-14T04:48:57;16.10;99.90
21445;DHT22;10883;51.946;20.140;2023-06-14T04:51:28;16.20;99.90
21445;DHT22;10883;51.946;20.140;2023-06-14T04:53:58;16.30;99.90
21445;DHT22;10883;51.946;20.140;2023-06-14T04:56:24;16.30;99.90
21445;DHT22;10883;51.946;20.140;2023-06-14T04:58:54;16.40;99.90
21445;DHT22;10883;51.946;20.140;2023-06-14T05:01:22;16.50;99.90
21445;DHT22;10883;51.946;20.140;2023-06-14T05:03:49;16.70;99.90
21445;DHT22;10883;51.946;20.140;2023-06-14T05:06:15;16.90;99.90
21445;DHT22;10883;51.946;20.140;2023-06-14T05:08:42;17.00;99.90
21445;DHT22;10883;51.946;20.140;2023-06-14T05:11:08;17.20;99.90
21445;DHT22;10883;51.946;20.140;2023-06-14T05:13:34;17.30;99.90
21445;DHT22;10883;51.946;20.140;2023-06-14T05:16:00;17.40;99.90
21445;DHT22;10883;51.946;20.140;2023-06-14T05:18:26;17.50;99.90
21445;DHT22;10883;51.946;20.140;2023-06-14T05:20:52;17.60;99.90
21445;DHT22;10883;51.946;20.140;2023-06-14T05:23:17;17.70;99.90
21445;DHT22;10883;51.946;20.140;2023-06-14T05:25:44;18.00;99.90
21445;DHT22;10883;51.946;20.140;2023-06-14T05:28:10;18.00;99.90
21445;DHT22;10883;51.946;20.140;2023-06-14T05:30:38;18.00;99.90
21445;DHT22;10883;51.946;20.140;2023-06-14T05:33:04;17.90;99.90
21445;DHT22;10883;51.946;20.140;2023-06-14T05:35:30;17.70;99.90
21445;DHT22;10883;51.946;20.140;2023-06-14T05:37:55;17.60;99.90
21445;DHT22;10883;51.946;20.140;2023-06-14T05:40:22;17.60;99.90
21445;DHT22;10883;51.946;20.140;2023-06-14T05:42:47;17.50;99.90
21445;DHT22;10883;51.946;20.140;2023-06-14T05:45:13;17.40;99.90
21445;DHT22;10883;51.946;20.140;2023-06-14T05:47:40;17.30;99.90
21445;DHT22;10883;51.946;20.140;2023-06-14T05:50:06;17.40;99.90
21445;DHT22;10883;51.946;20.140;2023-06-14T05:52:32;17.30;99.90
21445;DHT22;10883;51.946;20.140;2023-06-14T05:54:58;17.50;99.90
21445;DHT22;10883;51.946;20.140;2023-06-14T05:57:25;17.60;99.90
21445;DHT22;10883;51.946;20.140;2023-06-14T05:59:51;17.80;99.90
21445;DHT22;10883;51.946;20.140;2023-06-14T06:02:17;18.00;99.90
21445;DHT22;10883;51.946;20.140;2023-06-14T06:04:42;18.20;99.90
21445;DHT22;10883;51.946;20.140;2023-06-14T06:07:08;18.30;99.90
21445;DHT22;10883;51.946;20.140;2023-06-14T06:09:34;18.30;99.90
21445;DHT22;10883;51.946;20.140;2023-06-14T06:12:00;18.20;99.90
21445;DHT22;10883;51.946;20.140;2023-06-14T06:14:25;18.30;99.90
21445;DHT22;10883;51.946;20.140;2023-06-14T06:16:51;18.40;99.90
21445;DHT22;10883;51.946;20.140;2023-06-14T06:19:18;18.60;99.90
21445;DHT22;10883;51.946;20.140;2023-06-14T06:21:44;18.80;99.90
21445;DHT22;10883;51.946;20.140;2023-06-14T06:24:09;18.90;99.90
21445;DHT22;10883;51.946;20.140;2023-06-14T06:26:35;19.20;99.90
21445;DHT22;10883;51.946;20.140;2023-06-14T06:29:01;19.50;99.90
21445;DHT22;10883;51.946;20.140;2023-06-14T06:31:27;19.60;99.90
21445;DHT22;10883;51.946;20.140;2023-06-14T06:33:54;19.50;99.90
21445;DHT22;10883;51.946;20.140;2023-06-14T06:36:20;19.60;99.90
21445;DHT22;10883;51.946;20.140;2023-06-14T06:38:47;19.70;99.90
21445;DHT22;10883;51.946;20.140;2023-06-14T06:41:13;19.70;99.90
21445;DHT22;10883;51.946;20.140;2023-06-14T06:43:39;19.60;99.90
21445;DHT22;10883;51.946;20.140;2023-06-14T06:46:05;19.50;99.90
21445;DHT22;10883;51.946;20.140;2023-06-14T06:48:30;19.50;99.90
21445;DHT22;10883;51.946;20.140;2023-06-14T06:50:56;19.50;99.90
21445;DHT22;10883;51.946;20.140;2023-06-14T06:53:22;19.50;99.90
21445;DHT22;10883;51.946;20.140;2023-06-14T06:55:48;19.50;99.90
21445;DHT22;10883;51.946;20.140;2023-06-14T06:58:14;19.40;99.90
21445;DHT22;10883;51.946;20.140;2023-06-14T07:00:40;19.50;99.90
21445;DHT22;10883;51.946;20.140;2023-06-14T07:03:06;19.50;99.90
21445;DHT22;10883;51.946;20.140;2023-06-14T07:05:32;19.60;99.90
21445;DHT22;10883;51.946;20.140;2023-06-14T07:07:58;19.90;99.90
21445;DHT22;10883;51.946;20.140;2023-06-14T07:10:24;20.20;99.90
21445;DHT22;10883;51.946;20.140;2023-06-14T07:12:52;20.40;99.90
21445;DHT22;10883;51.946;20.140;2023-06-14T07:15:18;20.80;99.90
21445;DHT22;10883;51.946;20.140;2023-06-14T07:17:44;21.10;99.90
21445;DHT22;10883;51.946;20.140;2023-06-14T07:20:10;21.40;99.90
21445;DHT22;10883;51.946;20.140;2023-06-14T07:22:42;21.50;99.90
21445;DHT22;10883;51.946;20.140;2023-06-14T07:25:09;21.70;99.90
21445;DHT22;10883;51.946;20.140;2023-06-14T07:27:38;21.90;99.90
21445;DHT22;10883;51.946;20.140;2023-06-14T07:30:04;22.00;99.90
21445;DHT22;10883;51.946;20.140;2023-06-14T07:32:30;22.30;99.90
21445;DHT22;10883;51.946;20.140;2023-06-14T07:34:56;22.50;99.90
21445;DHT22;10883;51.946;20.140;2023-06-14T07:37:21;22.80;99.90
21445;DHT22;10883;51.946;20.140;2023-06-14T07:39:47;23.00;99.90
21445;DHT22;10883;51.946;20.140;2023-06-14T07:42:13;23.20;99.90
21445;DHT22;10883;51.946;20.140;2023-06-14T07:44:39;23.10;99.90
21445;DHT22;10883;51.946;20.140;2023-06-14T07:47:05;23.20;99.90
21445;DHT22;10883;51.946;20.140;2023-06-14T07:49:30;22.80;99.90
21445;DHT22;10883;51.946;20.140;2023-06-14T07:51:56;22.40;99.90
21445;DHT22;10883;51.946;20.140;2023-06-14T07:54:22;22.20;99.90
21445;DHT22;10883;51.946;20.140;2023-06-14T07:56:52;22.00;99.90
21445;DHT22;10883;51.946;20.140;2023-06-14T07:59:17;21.60;99.90
21445;DHT22;10883;51.946;20.140;2023-06-14T08:01:43;21.50;99.90
21445;DHT22;10883;51.946;20.140;2023-06-14T08:04:16;20.90;99.90
21445;DHT22;10883;51.946;20.140;2023-06-14T08:06:42;21.20;99.90
21445;DHT22;10883;51.946;20.140;2023-06-14T08:09:12;21.20;99.90
21445;DHT22;10883;51.946;20.140;2023-06-14T08:11:38;21.20;99.90
21445;DHT22;10883;51.946;20.140;2023-06-14T08:14:04;21.10;99.90
21445;DHT22;10883;51.946;20.140;2023-06-14T08:16:29;21.10;99.90
21445;DHT22;10883;51.946;20.140;2023-06-14T08:18:55;21.20;99.90
21445;DHT22;10883;51.946;20.140;2023-06-14T08:21:21;21.20;99.90
21445;DHT22;10883;51.946;20.140;2023-06-14T08:23:47;21.40;99.90
21445;DHT22;10883;51.946;20.140;2023-06-14T08:26:13;21.60;99.90
21445;DHT22;10883;51.946;20.140;2023-06-14T08:28:39;21.70;99.90
21445;DHT22;10883;51.946;20.140;2023-06-14T08:31:04;21.90;99.90
21445;DHT22;10883;51.946;20.140;2023-06-14T08:33:31;21.90;99.90
21445;DHT22;10883;51.946;20.140;2023-06-14T08:35:58;22.10;99.90
21445;DHT22;10883;51.946;20.140;2023-06-14T08:38:24;22.30;99.90
21445;DHT22;10883;51.946;20.140;2023-06-14T08:40:51;22.50;99.90
21445;DHT22;10883;51.946;20.140;2023-06-14T08:43:18;22.50;99.90
21445;DHT22;10883;51.946;20.140;2023-06-14T08:45:46;22.60;99.90
21445;DHT22;10883;51.946;20.140;2023-06-14T08:48:12;22.80;99.90
21445;DHT22;10883;51.946;20.140;2023-06-14T08:50:43;23.20;99.90
21445;DHT22;10883;51.946;20.140;2023-06-14T08:53:14;23.50;99.90
21445;DHT22;10883;51.946;20.140;2023-06-14T08:55:42;23.90;99.90
21445;DHT22;10883;51.946;20.140;2023-06-14T08:58:08;24.30;99.90
21445;DHT22;10883;51.946;20.140;2023-06-14T09:00:35;24.30;99.90
21445;DHT22;10883;51.946;20.140;2023-06-14T09:03:03;24.70;99.90
21445;DHT22;10883;51.946;20.140;2023-06-14T09:05:29;25.30;99.90
21445;DHT22;10883;51.946;20.140;2023-06-14T09:07:55;25.50;99.90
21445;DHT22;10883;51.946;20.140;2023-06-14T09:10:21;25.30;99.90
21445;DHT22;10883;51.946;20.140;2023-06-14T09:12:48;25.10;99.90
21445;DHT22;10883;51.946;20.140;2023-06-14T09:15:14;24.80;98.50
21445;DHT22;10883;51.946;20.140;2023-06-14T09:17:40;24.30;98.10
21445;DHT22;10883;51.946;20.140;2023-06-14T09:20:07;22.80;99.90
21445;DHT22;10883;51.946;20.140;2023-06-14T09:22:39;22.90;99.90
21445;DHT22;10883;51.946;20.140;2023-06-14T09:25:07;23.50;99.90
21445;DHT22;10883;51.946;20.140;2023-06-14T09:27:33;23.90;99.90
21445;DHT22;10883;51.946;20.140;2023-06-14T09:30:04;24.30;99.50
21445;DHT22;10883;51.946;20.140;2023-06-14T09:32:30;24.40;99.90
21445;DHT22;10883;51.946;20.140;2023-06-14T09:34:57;24.50;99.20
21445;DHT22;10883;51.946;20.140;2023-06-14T09:37:30;24.80;98.40
21445;DHT22;10883;51.946;20.140;2023-06-14T09:39:56;24.60;98.20
21445;DHT22;10883;51.946;20.140;2023-06-14T09:42:22;24.30;99.30
21445;DHT22;10883;51.946;20.140;2023-06-14T09:44:52;24.20;99.80
21445;DHT22;10883;51.946;20.140;2023-06-14T09:47:19;24.40;99.90
21445;DHT22;10883;51.946;20.140;2023-06-14T09:49:44;24.40;99.30
21445;DHT22;10883;51.946;20.140;2023-06-14T09:52:14;23.70;98.20
21445;DHT22;10883;51.946;20.140;2023-06-14T09:54:41;23.60;99.90
21445;DHT22;10883;51.946;20.140;2023-06-14T09:57:16;23.20;99.90
21445;DHT22;10883;51.946;20.140;2023-06-14T09:59:47;22.80;99.90
21445;DHT22;10883;51.946;20.140;2023-06-14T10:02:27;23.20;99.90
21445;DHT22;10883;51.946;20.140;2023-06-14T10:05:06;22.60;99.90
21445;DHT22;10883;51.946;20.140;2023-06-14T10:07:44;22.50;99.90
21445;DHT22;10883;51.946;20.140;2023-06-14T10:10:13;23.10;99.90
21445;DHT22;10883;51.946;20.140;2023-06-14T10:12:39;22.70;99.90
21445;DHT22;10883;51.946;20.140;2023-06-14T10:15:09;22.70;99.90
21445;DHT22;10883;51.946;20.140;2023-06-14T10:17:49;22.80;99.90
21445;DHT22;10883;51.946;20.140;2023-06-14T10:20:47;22.80;99.90
21445;DHT22;10883;51.946;20.140;2023-06-14T10:23:18;22.80;99.90
21445;DHT22;10883;51.946;20.140;2023-06-14T10:25:45;23.20;99.90
21445;DHT22;10883;51.946;20.140;2023-06-14T10:28:21;23.30;99.90
21445;DHT22;10883;51.946;20.140;2023-06-14T10:31:09;23.70;99.90
21445;DHT22;10883;51.946;20.140;2023-06-14T10:33:36;24.00;99.80
21445;DHT22;10883;51.946;20.140;2023-06-14T10:38:42;24.00;99.90
21445;DHT22;10883;51.946;20.140;2023-06-14T10:41:09;23.50;99.90
21445;DHT22;10883;51.946;20.140;2023-06-14T10:43:35;23.20;99.90
21445;DHT22;10883;51.946;20.140;2023-06-14T10:46:19;23.40;99.90
21445;DHT22;10883;51.946;20.140;2023-06-14T10:48:48;23.30;99.70
21445;DHT22;10883;51.946;20.140;2023-06-14T10:51:20;23.10;99.90
21445;DHT22;10883;51.946;20.140;2023-06-14T10:53:50;22.90;99.90
21445;DHT22;10883;51.946;20.140;2023-06-14T10:56:29;22.60;99.90
21445;DHT22;10883;51.946;20.140;2023-06-14T10:58:59;22.20;99.90
21445;DHT22;10883;51.946;20.140;2023-06-14T11:01:40;21.90;99.90
21445;DHT22;10883;51.946;20.140;2023-06-14T11:04:10;21.80;99.90
21445;DHT22;10883;51.946;20.140;2023-06-14T11:06:50;21.50;99.90
21445;DHT22;10883;51.946;20.140;2023-06-14T11:09:44;21.60;99.90
21445;DHT22;10883;51.946;20.140;2023-06-14T11:12:14;22.30;99.90
21445;DHT22;10883;51.946;20.140;2023-06-14T11:14:40;23.40;99.90
21445;DHT22;10883;51.946;20.140;2023-06-14T11:17:06;24.40;99.90
21445;DHT22;10883;51.946;20.140;2023-06-14T11:19:32;25.60;99.90
21445;DHT22;10883;51.946;20.140;2023-06-14T11:21:59;26.40;99.90
21445;DHT22;10883;51.946;20.140;2023-06-14T11:24:24;27.20;99.90
21445;DHT22;10883;51.946;20.140;2023-06-14T11:26:50;28.80;94.30
21445;DHT22;10883;51.946;20.140;2023-06-14T11:29:16;29.20;93.20
21445;DHT22;10883;51.946;20.140;2023-06-14T11:31:46;28.10;93.50
21445;DHT22;10883;51.946;20.140;2023-06-14T11:34:12;27.20;94.30
21445;DHT22;10883;51.946;20.140;2023-06-14T11:36:38;25.30;97.40
21445;DHT22;10883;51.946;20.140;2023-06-14T11:39:06;24.20;99.90
21445;DHT22;10883;51.946;20.140;2023-06-14T11:41:42;23.50;99.90
21445;DHT22;10883;51.946;20.140;2023-06-14T11:44:09;22.70;99.90
21445;DHT22;10883;51.946;20.140;2023-06-14T11:46:35;22.20;99.90
21445;DHT22;10883;51.946;20.140;2023-06-14T11:49:02;21.80;99.90
21445;DHT22;10883;51.946;20.140;2023-06-14T11:51:33;21.50;99.90
21445;DHT22;10883;51.946;20.140;2023-06-14T11:54:00;21.30;99.90
21445;DHT22;10883;51.946;20.140;2023-06-14T11:56:28;21.20;99.90
21445;DHT22;10883;51.946;20.140;2023-06-14T11:58:54;21.00;99.90
21445;DHT22;10883;51.946;20.140;2023-06-14T12:01:24;20.80;99.90
21445;DHT22;10883;51.946;20.140;2023-06-14T12:03:52;20.50;99.90
21445;DHT22;10883;51.946;20.140;2023-06-14T12:06:26;20.20;99.90
21445;DHT22;10883;51.946;20.140;2023-06-14T12:08:56;19.80;99.90
21445;DHT22;10883;51.946;20.140;2023-06-14T12:11:22;19.40;99.90
21445;DHT22;10883;51.946;20.140;2023-06-14T12:13:49;19.10;99.90
21445;DHT22;10883;51.946;20.140;2023-06-14T12:16:14;18.80;99.90
21445;DHT22;10883;51.946;20.140;2023-06-14T12:18:40;18.60;99.90
21445;DHT22;10883;51.946;20.140;2023-06-14T12:21:09;18.30;99.90
21445;DHT22;10883;51.946;20.140;2023-06-14T12:23:54;18.30;99.90
21445;DHT22;10883;51.946;20.140;2023-06-14T12:26:20;18.20;99.90
21445;DHT22;10883;51.946;20.140;2023-06-14T12:28:47;18.30;99.90
21445;DHT22;10883;51.946;20.140;2023-06-14T12:31:14;18.40;99.90
21445;DHT22;10883;51.946;20.140;2023-06-14T12:33:40;18.50;99.90
21445;DHT22;10883;51.946;20.140;2023-06-14T12:36:10;18.70;99.90
21445;DHT22;10883;51.946;20.140;2023-06-14T12:38:37;18.70;99.90
21445;DHT22;10883;51.946;20.140;2023-06-14T12:41:03;18.70;99.90
21445;DHT22;10883;51.946;20.140;2023-06-14T12:43:29;18.80;99.90
21445;DHT22;10883;51.946;20.140;2023-06-14T12:45:55;19.00;99.90
21445;DHT22;10883;51.946;20.140;2023-06-14T12:48:21;19.10;99.90
21445;DHT22;10883;51.946;20.140;2023-06-14T12:50:47;19.20;99.90
21445;DHT22;10883;51.946;20.140;2023-06-14T12:53:13;19.40;99.90
21445;DHT22;10883;51.946;20.140;2023-06-14T12:55:40;19.60;99.90
21445;DHT22;10883;51.946;20.140;2023-06-14T12:58:06;19.90;99.90
21445;DHT22;10883;51.946;20.140;2023-06-14T13:00:32;20.10;99.90
21445;DHT22;10883;51.946;20.140;2023-06-14T13:02:58;20.40;99.90
21445;DHT22;10883;51.946;20.140;2023-06-14T13:05:24;20.80;99.90
21445;DHT22;10883;51.946;20.140;2023-06-14T13:07:50;21.10;99.90
21445;DHT22;10883;51.946;20.140;2023-06-14T13:10:16;21.40;99.90
21445;DHT22;10883;51.946;20.140;2023-06-14T13:12:43;21.80;99.90
21445;DHT22;10883;51.946;20.140;2023-06-14T13:15:08;21.70;99.90
21445;DHT22;10883;51.946;20.140;2023-06-14T13:17:35;22.20;99.90
21445;DHT22;10883;51.946;20.140;2023-06-14T13:20:08;22.50;99.90
21445;DHT22;10883;51.946;20.140;2023-06-14T13:22:34;22.80;99.90
21445;DHT22;10883;51.946;20.140;2023-06-14T13:25:01;23.00;99.90
21445;DHT22;10883;51.946;20.140;2023-06-14T13:27:27;23.40;99.90
21445;DHT22;10883;51.946;20.140;2023-06-14T13:29:53;23.40;99.90
21445;DHT22;10883;51.946;20.140;2023-06-14T13:32:21;23.60;99.90
21445;DHT22;10883;51.946;20.140;2023-06-14T13:34:47;23.50;99.90
21445;DHT22;10883;51.946;20.140;2023-06-14T13:37:13;23.60;99.90
21445;DHT22;10883;51.946;20.140;2023-06-14T13:39:39;23.20;99.90
21445;DHT22;10883;51.946;20.140;2023-06-14T13:42:05;22.90;99.90
21445;DHT22;10883;51.946;20.140;2023-06-14T13:44:31;22.70;99.90
21445;DHT22;10883;51.946;20.140;2023-06-14T13:46:57;22.70;99.90
21445;DHT22;10883;51.946;20.140;2023-06-14T13:49:22;22.60;99.90
21445;DHT22;10883;51.946;20.140;2023-06-14T13:51:48;22.80;99.90
21445;DHT22;10883;51.946;20.140;2023-06-14T13:54:14;22.90;99.90
21445;DHT22;10883;51.946;20.140;2023-06-14T13:56:41;23.20;99.90
21445;DHT22;10883;51.946;20.140;2023-06-14T13:59:06;23.10;99.90
21445;DHT22;10883;51.946;20.140;2023-06-14T14:01:33;22.90;99.90
21445;DHT22;10883;51.946;20.140;2023-06-14T14:03:58;22.60;99.90
21445;DHT22;10883;51.946;20.140;2023-06-14T14:06:26;22.40;99.90
21445;DHT22;10883;51.946;20.140;2023-06-14T14:08:52;22.20;99.90
21445;DHT22;10883;51.946;20.140;2023-06-14T14:11:18;22.20;99.90
21445;DHT22;10883;51.946;20.140;2023-06-14T14:13:44;22.20;99.90
21445;DHT22;10883;51.946;20.140;2023-06-14T14:16:10;22.10;99.90
21445;DHT22;10883;51.946;20.140;2023-06-14T14:18:36;22.20;99.90
21445;DHT22;10883;51.946;20.140;2023-06-14T14:21:02;22.10;99.90
21445;DHT22;10883;51.946;20.140;2023-06-14T14:23:28;22.00;99.90
21445;DHT22;10883;51.946;20.140;2023-06-14T14:25:55;21.90;99.90
21445;DHT22;10883;51.946;20.140;2023-06-14T14:28:20;21.90;99.90
21445;DHT22;10883;51.946;20.140;2023-06-14T14:30:47;21.60;99.90
21445;DHT22;10883;51.946;20.140;2023-06-14T14:33:13;21.50;99.90
21445;DHT22;10883;51.946;20.140;2023-06-14T14:35:45;21.20;99.90
21445;DHT22;10883;51.946;20.140;2023-06-14T14:38:14;21.10;99.90
21445;DHT22;10883;51.946;20.140;2023-06-14T14:40:43;21.00;99.90
21445;DHT22;10883;51.946;20.140;2023-06-14T14:43:10;20.80;99.90
21445;DHT22;10883;51.946;20.140;2023-06-14T14:45:36;20.80;99.90
21445;DHT22;10883;51.946;20.140;2023-06-14T14:48:02;20.80;99.90
21445;DHT22;10883;51.946;20.140;2023-06-14T14:50:29;20.80;99.90
21445;DHT22;10883;51.946;20.140;2023-06-14T14:52:55;20.80;99.90
21445;DHT22;10883;51.946;20.140;2023-06-14T14:55:21;20.80;99.90
21445;DHT22;10883;51.946;20.140;2023-06-14T14:57:47;20.80;99.90
21445;DHT22;10883;51.946;20.140;2023-06-14T15:00:13;20.70;99.90
21445;DHT22;10883;51.946;20.140;2023-06-14T15:02:40;20.70;99.90
21445;DHT22;10883;51.946;20.140;2023-06-14T15:05:06;20.70;99.90
21445;DHT22;10883;51.946;20.140;2023-06-14T15:07:31;20.70;99.90
21445;DHT22;10883;51.946;20.140;2023-06-14T15:09:59;20.70;99.90
21445;DHT22;10883;51.946;20.140;2023-06-14T15:12:25;20.70;99.90
21445;DHT22;10883;51.946;20.140;2023-06-14T15:14:51;20.70;99.90
21445;DHT22;10883;51.946;20.140;2023-06-14T15:17:20;20.70;99.90
21445;DHT22;10883;51.946;20.140;2023-06-14T15:19:47;20.70;99.90